Time;durP1;ratioP1;P1;durP2;ratioP2;P2;SDS_P1;SDS_P2;PMS_P1;PMS_P2;Temp;Humidity;BMP_temperature;BMP_pressure;BME280_temperature;BME280_humidity;BME280_pressure;Samples;Min_cycle;Max_cycle;Signal;HPM_P1;HPM_P2
2023/10/25 00:01:49;;;;;;;12.50;11.20;;;24.10;98.10;;;;;;6330807;27;88047;-72
2023/10/25 00:04:55;;;;;;;12.40;11.10;;;24.00;98.10;;;;;;6320623;27;88932;-72
2023/10/25 00:07:57;;;;;;;12.60;11.30;;;24.10;98.10;;;;;;6324665;27;89289;-72
2023/10/25 00:11:06;;;;;;;12.48;11.27;;;24.00;98.00;;;;;;6313971;27;87977;-72
2023/10/25 00:14:09;;;;;;;12.55;11.32;;;24.00;98.00;;;;;;6322850;27;89328;-71
2023/10/25 00:17:11;;;;;;;11.93;10.70;;;24.00;98.00;;;;;;6323566;27;87142;-71
2023/10/25 00:20:14;;;;;;;11.93;10.73;;;24.00;98.00;;;;;;6324591;27;89053;-72
2023/10/25 00:23:16;;;;;;;12.65;11.23;;;24.00;98.00;;;;;;6324742;27;88945;-72
2023/10/25 00:26:18;;;;;;;12.38;11.18;;;24.00;98.00;;;;;;6322206;27;89937;-72
2023/10/25 00:29:20;;;;;;;12.15;10.98;;;24.00;98.00;;;;;;6325766;27;88938;-71
2023/10/25 00:32:22;;;;;;;10.90;9.80;;;24.00;98.00;;;;;;6326812;27;89004;-72
2023/10/25 00:35:25;;;;;;;11.00;9.90;;;24.00;97.60;;;;;;6329167;27;88021;-72
2023/10/25 00:38:27;;;;;;;10.95;9.85;;;24.00;97.00;;;;;;6331184;27;89012;-72
2023/10/25 00:41:29;;;;;;;10.70;9.60;;;24.00;96.80;;;;;;6317708;27;89139;-72
2023/10/25 00:44:32;;;;;;;11.00;9.88;;;24.00;96.90;;;;;;6318432;27;89042;-71
2023/10/25 00:47:34;;;;;;;11.45;9.88;;;24.00;97.10;;;;;;6326542;27;88330;-72
2023/10/25 00:50:38;;;;;;;10.23;9.23;;;24.00;97.00;;;;;;6325628;27;89119;-72
2023/10/25 00:53:43;;;;;;;11.40;9.80;;;24.00;97.20;;;;;;6320129;27;89249;-72
2023/10/25 00:56:46;;;;;;;10.82;9.73;;;24.00;97.30;;;;;;6323862;27;90038;-72
2023/10/25 00:59:48;;;;;;;10.40;9.40;;;24.00;97.40;;;;;;6332929;27;87926;-72
2023/10/25 01:02:50;;;;;;;11.02;9.80;;;23.90;97.30;;;;;;6322860;27;89027;-72
2023/10/25 01:05:55;;;;;;;11.07;9.88;;;23.90;97.30;;;;;;6323727;27;89032;-72
2023/10/25 01:08:57;;;;;;;10.63;9.63;;;23.90;97.40;;;;;;6314706;27;89054;-71
2023/10/25 01:11:59;;;;;;;10.93;9.20;;;23.90;97.30;;;;;;6331422;27;89017;-72
2023/10/25 01:15:01;;;;;;;11.63;10.50;;;23.90;97.20;;;;;;6330881;27;89054;-71
2023/10/25 01:18:03;;;;;;;10.90;9.80;;;23.90;97.30;;;;;;6317792;27;88255;-71
2023/10/25 01:21:07;;;;;;;10.18;9.18;;;23.90;97.20;;;;;;6322680;27;89247;-73
2023/10/25 01:24:11;;;;;;;10.32;9.32;;;23.90;97.30;;;;;;6319163;27;89124;-71
2023/10/25 01:27:13;;;;;;;10.48;9.38;;;23.90;97.20;;;;;;6318540;27;89621;-72
2023/10/25 01:30:15;;;;;;;10.70;9.60;;;23.90;97.30;;;;;;6322321;27;89499;-72
2023/10/25 01:33:17;;;;;;;11.13;10.02;;;23.90;97.30;;;;;;6312853;27;88727;-72
2023/10/25 01:36:19;;;;;;;10.82;9.75;;;23.90;97.30;;;;;;6323276;27;90143;-72
2023/10/25 01:39:22;;;;;;;10.55;9.45;;;23.90;97.40;;;;;;6325985;27;87874;-71
2023/10/25 01:42:24;;;;;;;10.60;9.50;;;23.90;97.30;;;;;;6319325;27;89200;-73
2023/10/25 01:45:27;;;;;;;10.10;9.10;;;23.90;97.30;;;;;;6319772;27;89222;-71
2023/10/25 01:48:29;;;;;;;10.25;9.18;;;23.90;97.30;;;;;;6325968;27;89848;-71
2023/10/25 01:51:30;;;;;;;10.93;9.82;;;23.90;97.30;;;;;;6316391;27;89053;-72
2023/10/25 01:54:34;;;;;;;10.60;9.52;;;23.90;97.30;;;;;;6321765;27;89402;-72
2023/10/25 01:57:36;;;;;;;10.18;9.18;;;23.90;97.30;;;;;;6323793;27;89977;-72
2023/10/25 02:00:39;;;;;;;10.38;9.38;;;23.80;97.20;;;;;;6332042;27;89024;-71
2023/10/25 02:03:41;;;;;;;9.88;8.88;;;23.90;97.30;;;;;;6331091;27;88953;-71
2023/10/25 02:06:44;;;;;;;10.02;9.05;;;23.90;97.20;;;;;;6324567;27;89122;-70
2023/10/25 02:09:47;;;;;;;9.68;8.73;;;23.90;97.20;;;;;;6328356;27;89185;-69
2023/10/25 02:12:49;;;;;;;9.77;8.88;;;23.90;97.20;;;;;;6329333;27;89027;-70
2023/10/25 02:15:51;;;;;;;9.82;8.88;;;23.90;97.20;;;;;;6332859;27;89150;-70
2023/10/25 02:18:53;;;;;;;9.80;8.80;;;23.80;97.20;;;;;;6319827;27;88731;-71
2023/10/25 02:21:55;;;;;;;9.80;8.80;;;23.90;97.20;;;;;;6320910;27;89109;-71
2023/10/25 02:24:58;;;;;;;9.55;8.63;;;23.80;97.10;;;;;;6322317;27;89064;-73
2023/10/25 02:28:00;;;;;;;9.90;8.90;;;23.80;97.10;;;;;;6321727;27;89977;-73
2023/10/25 02:31:02;;;;;;;9.23;8.32;;;23.80;97.10;;;;;;6332136;27;89045;-72
2023/10/25 02:34:05;;;;;;;9.85;8.82;;;23.80;97.10;;;;;;6322986;27;88973;-72
2023/10/25 02:37:08;;;;;;;9.63;8.65;;;23.80;97.20;;;;;;6322869;27;88997;-72
2023/10/25 02:40:12;;;;;;;9.10;8.20;;;23.80;97.10;;;;;;6324220;27;89445;-72
2023/10/25 02:43:17;;;;;;;9.40;8.50;;;23.80;97.20;;;;;;6321931;27;89082;-71
2023/10/25 02:46:19;;;;;;;9.13;8.23;;;23.70;97.10;;;;;;6321279;27;88387;-71
2023/10/25 02:49:21;;;;;;;9.65;8.75;;;23.80;97.10;;;;;;6319598;27;88325;-72
2023/10/25 02:52:23;;;;;;;9.75;8.68;;;23.70;97.10;;;;;;6325535;27;89328;-72
2023/10/25 02:55:30;;;;;;;9.25;8.35;;;23.80;97.20;;;;;;6318518;27;89049;-72
2023/10/25 02:58:32;;;;;;;9.93;8.93;;;23.80;97.20;;;;;;6329928;27;90042;-72
2023/10/25 03:01:34;;;;;;;9.30;8.40;;;23.70;97.10;;;;;;6322973;27;88991;-70
2023/10/25 03:04:36;;;;;;;9.10;8.20;;;23.80;97.10;;;;;;6331001;27;89103;-71
2023/10/25 03:07:38;;;;;;;9.23;8.23;;;23.70;97.00;;;;;;6315048;27;89036;-71
2023/10/25 03:10:41;;;;;;;8.63;7.80;;;23.70;97.00;;;;;;6326273;27;89067;-71
2023/10/25 03:13:43;;;;;;;8.43;7.63;;;23.80;97.00;;;;;;6321400;27;87937;-70
2023/10/25 03:16:46;;;;;;;8.95;8.10;;;23.70;96.90;;;;;;6319627;27;89514;-71
2023/10/25 03:19:48;;;;;;;8.70;7.90;;;23.70;96.90;;;;;;6321359;27;88433;-73
2023/10/25 03:22:50;;;;;;;8.80;7.90;;;23.80;97.00;;;;;;6328146;27;88989;-72
2023/10/25 03:25:53;;;;;;;8.85;7.95;;;23.80;97.00;;;;;;6319369;27;88999;-71
2023/10/25 03:28:57;;;;;;;8.40;7.60;;;23.70;97.00;;;;;;6326325;27;89975;-71
2023/10/25 03:32:01;;;;;;;8.32;7.53;;;23.70;97.10;;;;;;6311238;27;87921;-73
2023/10/25 03:35:05;;;;;;;8.55;7.65;;;23.70;97.10;;;;;;6318979;27;88267;-72
2023/10/25 03:38:07;;;;;;;8.05;7.28;;;23.70;97.20;;;;;;6323789;27;89538;-72
2023/10/25 03:41:13;;;;;;;8.95;8.05;;;23.70;97.10;;;;;;6318259;27;89110;-72
2023/10/25 03:44:17;;;;;;;8.75;7.85;;;23.70;97.10;;;;;;6325783;27;88105;-73
2023/10/25 03:47:19;;;;;;;8.40;7.60;;;23.70;97.00;;;;;;6311745;27;88251;-73
2023/10/25 03:50:21;;;;;;;8.85;7.75;;;23.70;97.00;;;;;;6311588;27;88733;-72
2023/10/25 03:53:23;;;;;;;8.32;7.53;;;23.70;96.90;;;;;;6327915;27;89055;-73
2023/10/25 03:56:27;;;;;;;7.88;7.07;;;23.70;97.00;;;;;;6330307;27;89093;-73
2023/10/25 03:59:29;;;;;;;8.63;7.13;;;23.70;97.00;;;;;;6308106;27;90365;-73
2023/10/25 04:02:31;;;;;;;9.35;7.85;;;23.80;97.00;;;;;;6319361;27;88050;-72
2023/10/25 04:05:33;;;;;;;8.00;7.20;;;23.80;97.00;;;;;;6323213;27;89040;-72
2023/10/25 04:08:35;;;;;;;7.72;7.00;;;23.80;97.00;;;;;;6320949;27;89073;-73
2023/10/25 04:11:38;;;;;;;7.78;6.97;;;23.80;97.00;;;;;;6330048;27;89117;-73
2023/10/25 04:14:44;;;;;;;8.25;7.38;;;23.80;97.10;;;;;;6307669;27;87954;-73
2023/10/25 04:17:46;;;;;;;8.00;7.22;;;23.90;97.20;;;;;;6333756;27;89021;-73
2023/10/25 04:20:50;;;;;;;7.80;7.07;;;23.90;97.20;;;;;;6328289;27;87226;-74
2023/10/25 04:23:52;;;;;;;8.05;7.25;;;23.90;97.30;;;;;;6331101;27;89296;-73
2023/10/25 04:26:55;;;;;;;7.47;6.75;;;23.90;97.30;;;;;;6327980;27;89025;-74
2023/10/25 04:29:57;;;;;;;7.15;6.45;;;23.90;97.30;;;;;;6331906;27;90196;-73
2023/10/25 04:32:59;;;;;;;7.53;6.82;;;23.90;97.40;;;;;;6318766;27;89465;-72
2023/10/25 04:36:48;;;;;;;7.82;7.03;;;23.90;97.60;;;;;;6322274;27;90658;-75
2023/10/25 04:39:56;;;;;;;8.55;7.40;;;23.90;97.80;;;;;;6324639;27;89131;-72
2023/10/25 04:42:59;;;;;;;8.55;7.68;;;24.00;97.90;;;;;;6321691;27;87946;-72
2023/10/25 04:46:03;;;;;;;8.40;7.50;;;24.00;97.80;;;;;;6319003;27;89160;-72
2023/10/25 04:49:05;;;;;;;9.38;8.13;;;24.00;97.90;;;;;;6312622;27;89068;-72
2023/10/25 04:52:07;;;;;;;12.18;8.20;;;24.00;98.00;;;;;;6316986;27;88502;-70
2023/10/25 04:55:11;;;;;;;15.35;7.45;;;24.10;98.30;;;;;;6326358;27;89075;-71
2023/10/25 04:58:15;;;;;;;8.60;7.70;;;24.10;99.90;;;;;;6313577;27;89164;-70
2023/10/25 05:01:17;;;;;;;14.30;8.13;;;24.10;99.90;;;;;;6316135;27;90476;-71
2023/10/25 05:04:19;;;;;;;8.93;7.60;;;24.20;99.40;;;;;;6318826;27;89092;-71
2023/10/25 05:07:21;;;;;;;8.77;7.88;;;24.20;99.80;;;;;;6315619;27;89335;-69
2023/10/25 05:10:26;;;;;;;9.07;7.85;;;24.20;99.90;;;;;;6325806;27;89012;-72
2023/10/25 05:13:30;;;;;;;9.50;7.35;;;24.30;99.90;;;;;;6313151;27;89137;-69
2023/10/25 05:16:33;;;;;;;8.43;7.40;;;24.30;99.90;;;;;;6309054;27;89008;-69
2023/10/25 05:19:35;;;;;;;9.35;7.38;;;24.30;99.90;;;;;;6308450;27;89007;-70
2023/10/25 05:22:38;;;;;;;8.95;7.22;;;24.30;99.50;;;;;;6308115;27;88388;-70
2023/10/25 05:25:43;;;;;;;9.32;7.40;;;24.40;99.70;;;;;;6325753;27;87946;-70
2023/10/25 05:28:48;;;;;;;17.33;9.05;;;24.40;99.90;;;;;;6327794;27;89116;-67
2023/10/25 05:31:50;;;;;;;14.65;8.65;;;24.40;99.90;;;;;;6313231;27;90401;-70
2023/10/25 05:34:56;;;;;;;9.50;8.30;;;24.40;99.90;;;;;;6308373;27;87953;-70
2023/10/25 05:38:00;;;;;;;13.20;8.70;;;24.50;99.90;;;;;;6315580;27;89024;-70
2023/10/25 05:41:03;;;;;;;12.93;8.75;;;24.50;99.90;;;;;;6323517;27;89085;-70
2023/10/25 05:44:14;;;;;;;11.85;8.75;;;24.50;99.90;;;;;;6317064;27;89158;-70
2023/10/25 05:47:16;;;;;;;17.60;9.85;;;24.50;99.90;;;;;;6313833;27;87959;-70
2023/10/25 05:50:19;;;;;;;15.32;9.93;;;24.60;99.90;;;;;;6311816;27;87949;-70
2023/10/25 05:53:21;;;;;;;13.43;10.00;;;24.60;99.90;;;;;;6319575;27;87311;-70
2023/10/25 05:56:27;;;;;;;17.73;10.48;;;24.60;99.90;;;;;;6311213;27;88975;-70
2023/10/25 05:59:31;;;;;;;20.52;10.82;;;24.60;99.90;;;;;;6320747;27;90577;-70
2023/10/25 06:02:34;;;;;;;31.17;12.40;;;24.70;99.90;;;;;;6316027;27;90007;-70
2023/10/25 06:05:37;;;;;;;26.77;12.32;;;24.70;99.90;;;;;;6314153;27;89108;-72
2023/10/25 06:08:51;;;;;;;28.35;13.35;;;24.70;99.90;;;;;;6310697;27;89075;-71
2023/10/25 06:11:54;;;;;;;27.77;11.05;;;24.80;99.90;;;;;;6321631;27;89061;-69
2023/10/25 06:14:57;;;;;;;20.65;10.75;;;24.80;99.90;;;;;;6310434;27;88980;-69
2023/10/25 06:17:59;;;;;;;21.58;10.40;;;24.90;99.90;;;;;;6318449;27;89354;-70
2023/10/25 06:21:01;;;;;;;19.27;10.50;;;25.10;99.90;;;;;;6318349;27;89012;-71
2023/10/25 06:24:04;;;;;;;20.85;10.32;;;25.20;99.90;;;;;;6317181;27;88349;-70
2023/10/25 06:27:06;;;;;;;16.80;9.60;;;25.20;99.90;;;;;;6319042;27;89090;-70
2023/10/25 06:30:10;;;;;;;18.23;8.65;;;25.20;99.90;;;;;;6322938;27;89068;-70
2023/10/25 06:33:12;;;;;;;15.75;7.80;;;25.20;98.70;;;;;;6322681;27;90259;-70
2023/10/25 06:36:15;;;;;;;13.70;7.60;;;25.20;98.20;;;;;;6315514;27;87997;-70
2023/10/25 06:39:18;;;;;;;18.08;8.05;;;25.20;98.00;;;;;;6329359;27;89010;-70
2023/10/25 06:42:20;;;;;;;11.88;7.00;;;25.10;97.70;;;;;;6318466;27;89206;-70
2023/10/25 06:45:24;;;;;;;15.65;7.22;;;25.10;98.10;;;;;;6313828;27;88943;-70
2023/10/25 06:48:27;;;;;;;12.35;7.28;;;25.10;98.30;;;;;;6319747;27;89058;-70
2023/10/25 06:51:29;;;;;;;13.00;6.63;;;25.10;98.10;;;;;;6322526;27;89075;-69
2023/10/25 06:54:32;;;;;;;12.18;7.10;;;25.00;98.00;;;;;;6320105;27;87447;-70
2023/10/25 06:57:35;;;;;;;9.88;6.25;;;25.00;97.90;;;;;;6327794;27;89377;-70
2023/10/25 07:00:40;;;;;;;11.75;6.93;;;25.00;96.90;;;;;;6328124;27;88656;-69
2023/10/25 07:03:46;;;;;;;11.68;6.32;;;25.00;96.70;;;;;;6321484;27;90002;-69
2023/10/25 07:06:49;;;;;;;15.63;6.28;;;25.00;96.60;;;;;;6329329;27;87997;-70
2023/10/25 07:09:52;;;;;;;10.45;6.95;;;25.00;96.00;;;;;;6326303;27;89019;-70
2023/10/25 07:12:54;;;;;;;10.00;5.90;;;25.00;95.90;;;;;;6323290;27;89131;-69
2023/10/25 07:15:57;;;;;;;11.82;5.88;;;25.00;95.70;;;;;;6325427;27;89413;-69
2023/10/25 07:18:59;;;;;;;9.45;6.05;;;25.00;95.50;;;;;;6321367;27;89258;-70
2023/10/25 07:22:01;;;;;;;10.18;5.97;;;25.00;95.40;;;;;;6327166;27;88984;-69
2023/10/25 07:25:04;;;;;;;11.48;6.38;;;25.00;95.40;;;;;;6328386;27;88258;-70
2023/10/25 07:28:06;;;;;;;8.63;5.47;;;25.00;95.60;;;;;;6318223;27;88981;-70
2023/10/25 07:31:09;;;;;;;8.20;5.63;;;25.00;95.80;;;;;;6325558;27;89392;-69
2023/10/25 07:34:11;;;;;;;10.02;5.55;;;25.00;95.80;;;;;;6314753;27;90000;-70
2023/10/25 07:37:13;;;;;;;8.88;6.18;;;24.90;95.90;;;;;;6318269;27;89045;-70
2023/10/25 07:40:15;;;;;;;10.35;5.95;;;24.90;95.90;;;;;;6322614;27;89124;-69
2023/10/25 07:43:17;;;;;;;10.05;6.10;;;24.90;95.90;;;;;;6315087;27;88062;-69
2023/10/25 07:46:21;;;;;;;10.55;5.90;;;24.90;96.10;;;;;;6321225;27;89110;-69
2023/10/25 07:49:24;;;;;;;13.63;6.50;;;24.90;96.00;;;;;;6312171;27;88955;-69
2023/10/25 07:52:29;;;;;;;10.55;6.20;;;24.90;96.00;;;;;;6326935;27;88997;-69
2023/10/25 07:55:31;;;;;;;9.63;6.10;;;24.90;96.00;;;;;;6312264;27;88371;-70
2023/10/25 07:58:33;;;;;;;8.80;6.00;;;24.90;96.10;;;;;;6319179;27;89042;-70
2023/10/25 08:01:37;;;;;;;7.70;5.63;;;24.90;96.20;;;;;;6313128;27;88949;-69
2023/10/25 08:04:41;;;;;;;8.32;6.07;;;24.90;96.10;;;;;;6309416;27;88896;-70
2023/10/25 08:07:43;;;;;;;9.43;6.40;;;24.80;96.10;;;;;;6311393;27;89072;-70
2023/10/25 08:10:44;;;;;;;7.70;6.22;;;24.90;96.20;;;;;;6317885;27;89104;-70
2023/10/25 08:13:46;;;;;;;8.05;6.13;;;24.90;96.30;;;;;;6328422;27;89171;-70
2023/10/25 08:16:50;;;;;;;8.60;6.28;;;24.90;96.20;;;;;;6307208;27;89009;-70
2023/10/25 08:19:52;;;;;;;8.65;6.32;;;24.80;96.10;;;;;;6325070;27;89039;-70
2023/10/25 08:22:54;;;;;;;9.27;6.85;;;24.80;96.10;;;;;;6328584;27;89575;-69
2023/10/25 08:26:00;;;;;;;8.98;7.80;;;24.90;96.00;;;;;;6318489;27;88447;-69
2023/10/25 08:29:02;;;;;;;9.85;7.40;;;24.80;95.30;;;;;;6319258;27;88077;-69
2023/10/25 08:32:06;;;;;;;9.15;7.63;;;24.80;95.30;;;;;;6320898;27;89055;-70
2023/10/25 08:35:09;;;;;;;11.02;7.60;;;24.80;95.40;;;;;;6318091;27;89992;-70
2023/10/25 08:38:11;;;;;;;9.35;7.45;;;24.80;95.50;;;;;;6318378;27;89276;-69
2023/10/25 08:41:15;;;;;;;8.82;7.00;;;24.80;95.60;;;;;;6331117;27;88421;-70
2023/10/25 08:44:17;;;;;;;9.50;7.70;;;24.80;95.60;;;;;;6320862;27;89034;-69
2023/10/25 08:47:20;;;;;;;9.60;7.32;;;24.80;95.40;;;;;;6316403;27;89049;-69
2023/10/25 08:50:22;;;;;;;9.68;7.70;;;24.80;95.40;;;;;;6312814;27;89107;-69
2023/10/25 08:53:25;;;;;;;10.48;8.20;;;24.80;95.80;;;;;;6312486;27;88961;-70
2023/10/25 08:56:27;;;;;;;8.63;7.72;;;24.80;95.30;;;;;;6309002;27;88227;-70
2023/10/25 08:59:29;;;;;;;9.50;7.60;;;24.70;95.00;;;;;;6312030;27;89068;-70
2023/10/25 09:02:36;;;;;;;9.68;8.00;;;24.70;95.30;;;;;;6310179;27;89277;-70
2023/10/25 09:05:41;;;;;;;9.73;7.97;;;24.80;95.40;;;;;;6319081;27;90289;-70
2023/10/25 09:08:48;;;;;;;9.65;8.10;;;24.70;95.40;;;;;;6310426;27;89004;-70
2023/10/25 09:11:50;;;;;;;11.43;8.50;;;24.70;95.60;;;;;;6317551;27;88688;-70
2023/10/25 09:14:52;;;;;;;10.60;8.18;;;24.70;95.40;;;;;;6314614;27;88848;-70
2023/10/25 09:17:57;;;;;;;9.48;8.20;;;24.70;95.50;;;;;;6307808;27;89644;-70
2023/10/25 09:20:59;;;;;;;8.80;7.90;;;24.70;95.50;;;;;;6318529;27;89063;-70
2023/10/25 09:24:07;;;;;;;8.48;7.57;;;24.70;95.50;;;;;;6310679;27;89035;-70
2023/10/25 09:27:09;;;;;;;8.80;7.90;;;24.70;95.50;;;;;;6306479;27;88265;-70
2023/10/25 09:30:13;;;;;;;9.73;8.00;;;24.70;95.50;;;;;;6313275;27;89318;-70
2023/10/25 09:33:17;;;;;;;8.80;7.90;;;24.70;95.60;;;;;;6323414;27;87894;-70
2023/10/25 09:36:20;;;;;;;9.05;8.13;;;24.70;95.50;;;;;;6311226;27;90409;-70
2023/10/25 09:39:22;;;;;;;9.93;8.60;;;24.70;95.50;;;;;;6322872;27;89043;-70
2023/10/25 09:42:28;;;;;;;8.88;7.97;;;24.70;95.60;;;;;;6313639;27;89016;-70
2023/10/25 09:45:31;;;;;;;8.35;7.43;;;24.70;95.70;;;;;;6321272;27;89194;-70
2023/10/25 09:48:37;;;;;;;9.88;8.32;;;24.70;95.60;;;;;;6317601;27;88991;-70
2023/10/25 09:51:54;;;;;;;9.63;7.55;;;24.80;95.60;;;;;;6310683;27;88002;-70
2023/10/25 09:55:04;;;;;;;10.35;8.38;;;24.70;95.50;;;;;;6319480;27;89264;-69
2023/10/25 09:58:10;;;;;;;9.52;8.10;;;24.70;95.40;;;;;;6328021;27;88373;-70
2023/10/25 10:01:12;;;;;;;9.32;8.35;;;24.70;95.40;;;;;;6315836;27;89353;-70
2023/10/25 10:04:22;;;;;;;8.90;7.72;;;24.70;95.40;;;;;;6312480;27;87948;-70
2023/10/25 10:07:35;;;;;;;8.77;7.55;;;24.80;95.40;;;;;;6314595;27;90243;-69
2023/10/25 10:10:43;;;;;;;8.23;7.43;;;24.80;95.40;;;;;;6334697;27;89022;-70
2023/10/25 10:13:45;;;;;;;8.65;7.85;;;24.80;95.40;;;;;;6323580;27;89105;-70
2023/10/25 10:16:49;;;;;;;9.82;8.10;;;24.80;95.40;;;;;;6318351;27;89306;-69
2023/10/25 10:19:52;;;;;;;9.10;7.93;;;24.80;95.40;;;;;;6335049;27;89070;-70
2023/10/25 10:23:04;;;;;;;8.38;7.57;;;24.80;95.40;;;;;;6317860;27;93198;-70
2023/10/25 10:26:09;;;;;;;9.50;7.97;;;24.80;95.40;;;;;;6315681;27;89109;-69
2023/10/25 10:29:39;;;;;;;9.10;8.20;;;24.80;95.40;;;;;;6328620;27;88392;-69
2023/10/25 10:32:40;;;;;;;8.57;7.68;;;24.80;95.50;;;;;;6312801;27;88999;-70
2023/10/25 10:35:48;;;;;;;8.68;7.78;;;24.80;95.50;;;;;;6319694;27;89415;-70
2023/10/25 10:39:12;;;;;;;7.93;7.22;;;24.80;95.50;;;;;;6314125;27;90241;-70
2023/10/25 10:42:20;;;;;;;8.55;7.65;;;24.80;95.50;;;;;;6316713;27;89051;-70
2023/10/25 10:45:23;;;;;;;8.80;7.90;;;24.80;95.50;;;;;;6329547;27;89068;-70
2023/10/25 10:48:33;;;;;;;8.68;7.80;;;24.80;95.50;;;;;;6318786;27;89187;-70
2023/10/25 10:51:37;;;;;;;8.02;7.22;;;24.80;95.50;;;;;;6322659;27;88218;-70
2023/10/25 10:54:41;;;;;;;8.18;7.38;;;24.80;95.50;;;;;;6327071;27;89059;-70
2023/10/25 10:57:43;;;;;;;8.27;7.43;;;24.80;95.50;;;;;;6333317;27;89058;-70
2023/10/25 11:00:45;;;;;;;8.30;7.43;;;24.80;95.50;;;;;;6323459;27;88455;-70
2023/10/25 11:03:50;;;;;;;7.97;7.18;;;24.70;95.50;;;;;;6329797;27;91289;-70
2023/10/25 11:06:53;;;;;;;7.85;7.03;;;24.80;95.60;;;;;;6308698;27;89309;-71
2023/10/25 11:09:56;;;;;;;7.63;6.93;;;24.80;95.50;;;;;;6325454;27;90094;-71
2023/10/25 11:12:58;;;;;;;7.97;7.18;;;24.80;95.40;;;;;;6318055;27;89190;-70
2023/10/25 11:16:08;;;;;;;8.15;7.35;;;24.80;95.40;;;;;;6315195;27;88674;-70
2023/10/25 11:19:10;;;;;;;8.07;7.28;;;24.80;95.40;;;;;;6324616;27;88960;-70
2023/10/25 11:22:14;;;;;;;7.72;6.93;;;24.80;95.40;;;;;;6314716;27;89427;-71
2023/10/25 11:25:21;;;;;;;8.05;7.22;;;24.80;95.40;;;;;;6314511;27;89286;-71
2023/10/25 11:28:24;;;;;;;8.02;7.22;;;24.80;95.40;;;;;;6316406;27;89007;-71
2023/10/25 11:31:31;;;;;;;8.05;7.28;;;24.70;95.70;;;;;;6315216;27;89690;-70
2023/10/25 11:34:34;;;;;;;8.15;7.35;;;24.80;95.10;;;;;;6325617;27;87989;-71
2023/10/25 11:37:45;;;;;;;7.85;7.03;;;24.80;95.20;;;;;;6314272;27;88979;-70
2023/10/25 11:40:48;;;;;;;8.38;6.55;;;24.80;95.40;;;;;;6315273;27;90013;-71
2023/10/25 11:43:50;;;;;;;8.80;7.30;;;24.80;95.20;;;;;;6313719;27;89358;-71
2023/10/25 11:46:55;;;;;;;7.53;6.82;;;24.70;94.80;;;;;;6312563;27;89221;-70
2023/10/25 11:49:59;;;;;;;7.50;6.72;;;24.70;94.60;;;;;;6319265;27;87893;-70
2023/10/25 11:53:02;;;;;;;7.85;6.90;;;24.70;94.80;;;;;;6319445;27;89269;-70
2023/10/25 11:56:04;;;;;;;7.97;7.28;;;24.80;95.00;;;;;;6318056;27;89103;-70
2023/10/25 11:59:06;;;;;;;7.28;6.57;;;24.80;95.10;;;;;;6308537;27;89115;-70
2023/10/25 12:02:08;;;;;;;10.55;7.82;;;24.70;95.20;;;;;;6310476;27;88388;-70
2023/10/25 12:05:12;;;;;;;7.65;6.90;;;24.70;94.70;;;;;;6309693;27;90495;-70
2023/10/25 12:08:16;;;;;;;7.65;6.90;;;24.80;94.90;;;;;;6305304;27;89228;-71
2023/10/25 12:11:18;;;;;;;7.75;6.95;;;24.70;95.00;;;;;;6324217;27;90007;-70
2023/10/25 12:14:20;;;;;;;8.40;7.53;;;24.70;94.90;;;;;;6329316;27;89435;-70
2023/10/25 12:17:22;;;;;;;8.50;7.10;;;24.80;94.80;;;;;;6312504;27;89154;-69
2023/10/25 12:20:26;;;;;;;8.07;7.28;;;24.70;94.90;;;;;;6327905;27;89073;-70
2023/10/25 12:23:29;;;;;;;8.80;7.35;;;24.70;95.00;;;;;;6313653;27;89078;-70
2023/10/25 12:26:31;;;;;;;8.70;7.70;;;24.70;94.80;;;;;;6312803;27;89088;-70
2023/10/25 12:29:36;;;;;;;9.88;7.65;;;24.70;95.10;;;;;;6316703;27;89101;-70
2023/10/25 12:32:39;;;;;;;10.93;8.18;;;24.70;95.00;;;;;;6317426;27;87821;-70
2023/10/25 12:35:42;;;;;;;9.98;8.23;;;24.70;94.10;;;;;;6316557;27;88057;-70
2023/10/25 12:38:45;;;;;;;8.23;7.38;;;24.70;93.90;;;;;;6325671;27;89081;-70
2023/10/25 12:41:47;;;;;;;8.73;7.82;;;24.70;94.10;;;;;;6306763;27;90280;-69
2023/10/25 12:44:49;;;;;;;10.18;8.02;;;24.70;94.40;;;;;;6306726;27;89053;-70
2023/10/25 12:47:51;;;;;;;8.60;7.80;;;24.70;94.60;;;;;;6308044;27;88983;-69
2023/10/25 12:50:53;;;;;;;8.90;7.72;;;24.70;94.80;;;;;;6306600;27;89059;-70
2023/10/25 12:53:57;;;;;;;9.55;8.55;;;24.70;94.80;;;;;;6311442;27;89107;-70
2023/10/25 12:56:59;;;;;;;9.23;8.27;;;24.70;94.90;;;;;;6307685;27;89289;-70
2023/10/25 13:00:02;;;;;;;9.88;8.15;;;24.70;95.00;;;;;;6311825;27;89052;-70
2023/10/25 13:03:04;;;;;;;8.50;7.70;;;24.70;95.00;;;;;;6316556;27;88261;-70
2023/10/25 13:06:07;;;;;;;9.60;8.60;;;24.70;95.10;;;;;;6311384;27;89131;-70
2023/10/25 13:09:12;;;;;;;9.25;8.35;;;24.70;95.50;;;;;;6310343;27;89064;-70
2023/10/25 13:12:14;;;;;;;9.40;8.50;;;24.70;95.10;;;;;;6317548;27;90000;-70
2023/10/25 13:15:16;;;;;;;9.40;8.40;;;24.70;95.10;;;;;;6313667;27;89057;-69
2023/10/25 13:18:17;;;;;;;10.32;8.48;;;24.70;95.10;;;;;;6307667;27;89134;-69
2023/10/25 13:21:19;;;;;;;9.02;8.13;;;24.70;94.50;;;;;;6330822;27;87960;-70
2023/10/25 13:24:24;;;;;;;9.15;8.25;;;24.70;94.30;;;;;;6307076;27;89105;-71
2023/10/25 13:27:26;;;;;;;8.93;8.02;;;24.60;94.20;;;;;;6316013;27;88118;-68
2023/10/25 13:30:28;;;;;;;9.05;8.15;;;24.70;94.30;;;;;;6319580;27;88062;-70
2023/10/25 13:33:30;;;;;;;10.90;8.15;;;24.70;94.60;;;;;;6308466;27;88461;-70
2023/10/25 13:36:32;;;;;;;10.48;8.05;;;24.70;94.90;;;;;;6315725;27;89194;-70
2023/10/25 13:39:35;;;;;;;9.68;8.13;;;24.60;95.20;;;;;;6314185;27;89048;-70
2023/10/25 13:42:39;;;;;;;8.90;7.90;;;24.60;95.40;;;;;;6306118;27;89981;-70
2023/10/25 13:45:41;;;;;;;10.50;8.40;;;24.70;95.50;;;;;;6321764;27;89140;-70
2023/10/25 13:48:44;;;;;;;9.20;8.02;;;24.60;95.60;;;;;;6316253;27;89004;-71
2023/10/25 13:51:46;;;;;;;9.38;8.02;;;24.60;95.70;;;;;;6309098;27;89243;-70
2023/10/25 13:54:49;;;;;;;8.88;7.95;;;24.70;95.80;;;;;;6317224;27;88981;-71
2023/10/25 13:57:51;;;;;;;10.90;7.95;;;24.60;95.90;;;;;;6321704;27;87925;-70
2023/10/25 14:00:53;;;;;;;9.63;8.63;;;24.60;96.00;;;;;;6308801;27;89030;-70
2023/10/25 14:03:55;;;;;;;10.45;8.35;;;24.70;96.10;;;;;;6328433;27;87518;-71
2023/10/25 14:06:57;;;;;;;9.00;8.10;;;24.60;96.10;;;;;;6318736;27;89009;-72
2023/10/25 14:10:00;;;;;;;10.45;8.60;;;24.70;96.20;;;;;;6328981;27;88958;-71
2023/10/25 14:13:02;;;;;;;9.40;8.05;;;24.60;96.40;;;;;;6315879;27;90299;-70
2023/10/25 14:16:10;;;;;;;8.65;7.70;;;24.60;96.40;;;;;;6314354;27;88971;-71
2023/10/25 14:19:12;;;;;;;8.63;7.80;;;24.60;96.50;;;;;;6316169;27;89038;-71
2023/10/25 14:22:15;;;;;;;9.38;7.68;;;24.70;96.50;;;;;;6328493;27;89016;-70
2023/10/25 14:25:18;;;;;;;9.85;7.60;;;24.70;96.50;;;;;;6325248;27;89060;-70
2023/10/25 14:28:21;;;;;;;10.40;7.75;;;24.70;96.50;;;;;;6325457;27;89151;-71
2023/10/25 14:31:24;;;;;;;9.60;7.85;;;24.60;96.50;;;;;;6329643;27;89142;-72
2023/10/25 14:34:26;;;;;;;10.10;7.40;;;24.70;96.50;;;;;;6315646;27;88380;-70
2023/10/25 14:37:29;;;;;;;9.02;7.75;;;24.70;96.50;;;;;;6324304;27;88973;-71
2023/10/25 14:40:38;;;;;;;8.80;7.90;;;24.70;96.60;;;;;;6327577;27;89141;-70
2023/10/25 14:43:41;;;;;;;8.77;7.30;;;24.70;96.70;;;;;;6309155;27;90066;-71
2023/10/25 14:46:44;;;;;;;8.23;7.43;;;24.70;96.70;;;;;;6313402;27;90393;-71
2023/10/25 14:49:46;;;;;;;8.20;7.40;;;24.70;96.70;;;;;;6322872;27;88901;-70
2023/10/25 14:52:48;;;;;;;8.32;7.53;;;24.70;96.60;;;;;;6309424;27;88968;-70
2023/10/25 14:55:52;;;;;;;8.10;7.30;;;24.60;96.60;;;;;;6324647;27;89021;-71
2023/10/25 14:58:55;;;;;;;9.25;7.30;;;24.70;96.60;;;;;;6311057;27;87920;-70
2023/10/25 15:01:57;;;;;;;7.47;6.78;;;24.70;96.60;;;;;;6310540;27;88001;-70
2023/10/25 15:04:59;;;;;;;7.88;7.10;;;24.60;96.60;;;;;;6328923;27;88742;-71
2023/10/25 15:08:01;;;;;;;8.10;7.10;;;24.60;96.70;;;;;;6320246;27;90793;-71
2023/10/25 15:11:04;;;;;;;8.48;7.20;;;24.70;96.80;;;;;;6321022;27;89001;-71
2023/10/25 15:14:06;;;;;;;8.27;7.47;;;24.70;96.70;;;;;;6319026;27;89957;-70
2023/10/25 15:17:08;;;;;;;8.35;7.10;;;24.60;96.70;;;;;;6311961;27;89991;-70
2023/10/25 15:20:11;;;;;;;8.70;7.18;;;24.60;96.60;;;;;;6326491;27;89178;-71
2023/10/25 15:23:14;;;;;;;8.20;6.97;;;24.60;96.60;;;;;;6332798;27;87915;-70
2023/10/25 15:26:18;;;;;;;7.60;6.85;;;24.70;96.50;;;;;;6327317;27;89051;-70
2023/10/25 15:29:20;;;;;;;7.28;6.57;;;24.60;96.50;;;;;;6321399;27;89096;-70
2023/10/25 15:32:24;;;;;;;7.60;6.68;;;24.70;96.40;;;;;;6334534;27;89458;-71
2023/10/25 15:35:26;;;;;;;9.68;7.07;;;24.70;96.40;;;;;;6321010;27;87265;-70
2023/10/25 15:38:29;;;;;;;7.63;6.80;;;24.60;96.30;;;;;;6322079;27;89078;-70
2023/10/25 15:41:34;;;;;;;7.65;6.50;;;24.70;96.40;;;;;;6321119;27;89129;-70
2023/10/25 15:44:36;;;;;;;7.40;6.70;;;24.60;96.30;;;;;;6324780;27;89869;-70
2023/10/25 15:47:38;;;;;;;7.82;6.47;;;24.60;96.20;;;;;;6310143;27;89028;-70
2023/10/25 15:50:40;;;;;;;7.88;6.65;;;24.70;96.30;;;;;;6320794;27;87940;-70